Time,TemperatureF,DewpointF,PressureIn,WindDirection,WindDirectionDegrees,WindSpeedMPH,WindSpeedGustMPH,Humidity,HourlyPrecipIn,Conditions,Clouds,dailyrainin,SoftwareType,DateUTC
2013-07-01 00:00:00,67.0,54.8,29.99,North,0,0.0,0.0,65,0.00,,,0.00,WUHU216HW,2013-07-01 05:00:00,
2013-07-01 00:05:00,67.0,54.8,29.99,North,0,0.0,0.0,65,0.00,,,0.00,WUHU216HW,2013-07-01 05:05:00,
2013-07-01 00:30:00,66.2,54.6,29.99,North,0,0.0,0.0,66,0.00,,,0.00,WUHU216HW,2013-07-01 05:30:00,
2013-07-01 00:35:00,66.2,54.6,29.99,North,0,0.0,0.0,66,0.00,,,0.00,WUHU216HW,2013-07-01 05:35:00,
2013-07-01 00:40:00,66.2,54.6,29.99,North,0,0.0,0.0,66,0.00,,,0.00,WUHU216HW,2013-07-01 05:40:00,
2013-07-01 01:00:00,65.7,54.5,30.00,North,0,0.0,0.0,67,0.00,,,0.00,WUHU216HW,2013-07-01 06:00:00,
2013-07-01 01:05:00,65.7,54.5,30.00,North,0,0.0,0.0,67,0.00,,,0.00,WUHU216HW,2013-07-01 06:05:00,
2013-07-01 01:30:00,65.2,54.4,30.00,North,0,0.0,0.0,68,0.00,,,0.00,WUHU216HW,2013-07-01 06:30:00,
2013-07-01 01:35:00,65.2,54.4,30.00,North,0,0.0,0.0,68,0.00,,,0.00,WUHU216HW,2013-07-01 06:35:00,
2013-07-01 02:00:00,64.6,54.3,30.00,North,0,0.0,0.0,69,0.00,,,0.00,WUHU216HW,2013-07-01 07:00:00,
2013-07-01 02:05:00,64.6,54.3,30.00,North,0,0.0,0.0,69,0.00,,,0.00,WUHU216HW,2013-07-01 07:05:00,
2013-07-01 02:30:00,63.4,53.5,30.00,North,0,0.0,0.0,70,0.00,,,0.00,WUHU216HW,2013-07-01 07:30:00,
2013-07-01 02:35:00,63.4,53.5,30.00,North,0,0.0,0.0,70,0.00,,,0.00,WUHU216HW,2013-07-01 07:35:00,
2013-07-01 03:00:00,63.0,53.8,30.00,North,0,0.0,0.0,72,0.00,,,0.00,WUHU216HW,2013-07-01 08:00:00,
2013-07-01 03:05:00,63.0,53.8,30.00,North,0,0.0,0.0,72,0.00,,,0.00,WUHU216HW,2013-07-01 08:05:00,
2013-07-01 03:30:00,62.3,53.1,30.00,North,0,0.0,0.0,72,0.00,,,0.00,WUHU216HW,2013-07-01 08:30:00,
2013-07-01 03:35:00,62.3,53.1,30.00,North,0,0.0,0.0,72,0.00,,,0.00,WUHU216HW,2013-07-01 08:35:00,
2013-07-01 04:00:00,61.6,52.5,30.01,North,0,0.0,0.0,72,0.00,,,0.00,WUHU216HW,2013-07-01 09:00:00,
2013-07-01 04:05:00,61.6,52.5,30.01,North,0,0.0,0.0,72,0.00,,,0.00,WUHU216HW,2013-07-01 09:05:00,
2013-07-01 04:30:00,61.2,52.6,30.01,ENE,68,0.2,0.2,73,0.00,,,0.00,WUHU216HW,2013-07-01 09:30:00,
2013-07-01 04:35:00,61.2,52.6,30.01,ENE,68,0.2,0.2,73,0.00,,,0.00,WUHU216HW,2013-07-01 09:35:00,
2013-07-01 05:00:00,60.7,52.0,30.02,NE,45,0.4,0.4,73,0.00,,,0.00,WUHU216HW,2013-07-01 10:00:00,
2013-07-01 05:05:00,60.7,52.0,30.02,NE,45,0.4,0.4,73,0.00,,,0.00,WUHU216HW,2013-07-01 10:05:00,
2013-07-01 05:30:00,60.3,51.7,30.02,North,0,0.0,0.0,73,0.00,,,0.00,WUHU216HW,2013-07-01 10:30:00,
2013-07-01 05:35:00,60.3,51.7,30.02,North,0,0.0,0.0,73,0.00,,,0.00,WUHU216HW,2013-07-01 10:35:00,
2013-07-01 06:00:00,60.1,51.8,30.03,North,0,0.0,0.0,74,0.00,,,0.00,WUHU216HW,2013-07-01 11:00:00,
2013-07-01 06:05:00,60.1,51.8,30.03,North,0,0.0,0.0,74,0.00,,,0.00,WUHU216HW,2013-07-01 11:05:00,
2013-07-01 06:30:00,59.8,51.5,30.03,NNE,23,0.4,0.4,74,0.00,,,0.00,WUHU216HW,2013-07-01 11:30:00,
2013-07-01 06:35:00,59.8,51.5,30.03,NNE,23,0.4,0.4,74,0.00,,,0.00,WUHU216HW,2013-07-01 11:35:00,
2013-07-01 07:00:00,59.9,52.0,30.04,NNE,23,0.0,0.0,75,0.00,,,0.00,WUHU216HW,2013-07-01 12:00:00,
2013-07-01 07:05:00,59.9,52.0,30.04,NNE,23,0.0,0.0,75,0.00,,,0.00,WUHU216HW,2013-07-01 12:05:00,
2013-07-01 07:30:00,60.7,53.1,30.04,ENE,68,2.0,2.0,76,0.00,,,0.00,WUHU216HW,2013-07-01 12:30:00,
2013-07-01 07:35:00,60.7,53.1,30.04,ENE,68,2.0,2.0,76,0.00,,,0.00,WUHU216HW,2013-07-01 12:35:00,
2013-07-01 08:00:00,61.9,53.9,30.05,NE,45,0.4,0.4,75,0.00,,,0.00,WUHU216HW,2013-07-01 13:00:00,
2013-07-01 08:05:00,61.9,53.9,30.05,NE,45,0.4,0.4,75,0.00,,,0.00,WUHU216HW,2013-07-01 13:05:00,
2013-07-01 08:30:00,63.7,55.3,30.06,North,0,4.3,4.3,74,0.00,,,0.00,WUHU216HW,2013-07-01 13:30:00,
2013-07-01 08:35:00,63.7,55.3,30.06,North,0,4.3,4.3,74,0.00,,,0.00,WUHU216HW,2013-07-01 13:35:00,
2013-07-01 09:00:00,65.2,55.9,30.06,NNW,338,1.1,1.1,72,0.00,,,0.00,WUHU216HW,2013-07-01 14:00:00,
2013-07-01 09:05:00,65.2,55.9,30.06,NNW,338,1.1,1.1,72,0.00,,,0.00,WUHU216HW,2013-07-01 14:05:00,
2013-07-01 09:30:00,67.1,56.6,30.07,NE,45,2.2,2.2,69,0.00,,,0.00,WUHU216HW,2013-07-01 14:30:00,
2013-07-01 09:35:00,67.1,56.6,30.07,NE,45,2.2,2.2,69,0.00,,,0.00,WUHU216HW,2013-07-01 14:35:00,
2013-07-01 10:00:00,69.1,57.2,30.07,NE,45,2.2,2.2,66,0.00,,,0.00,WUHU216HW,2013-07-01 15:00:00,
2013-07-01 10:05:00,69.1,57.2,30.07,NE,45,2.2,2.2,66,0.00,,,0.00,WUHU216HW,2013-07-01 15:05:00,
2013-07-01 10:30:00,70.9,56.4,30.07,North,0,0.0,0.0,60,0.00,,,0.00,WUHU216HW,2013-07-01 15:30:00,
2013-07-01 10:35:00,70.9,56.4,30.07,North,0,0.0,0.0,60,0.00,,,0.00,WUHU216HW,2013-07-01 15:35:00,
2013-07-01 11:00:00,73.1,56.9,30.07,North,0,0.0,0.0,57,0.00,,,0.00,WUHU216HW,2013-07-01 16:00:00,
2013-07-01 11:05:00,73.1,56.9,30.07,North,0,0.0,0.0,57,0.00,,,0.00,WUHU216HW,2013-07-01 16:05:00,
2013-07-01 11:30:00,74.9,53.8,30.07,ENE,68,4.7,4.7,48,0.00,,,0.00,WUHU216HW,2013-07-01 16:30:00,
2013-07-01 11:35:00,74.9,53.8,30.07,ENE,68,4.7,4.7,48,0.00,,,0.00,WUHU216HW,2013-07-01 16:35:00,
2013-07-01 12:00:00,75.8,55.9,30.07,North,0,6.7,6.7,50,0.00,,,0.00,WUHU216HW,2013-07-01 17:00:00,
2013-07-01 12:05:00,75.8,55.9,30.07,North,0,6.7,6.7,50,0.00,,,0.00,WUHU216HW,2013-07-01 17:05:00,
2013-07-01 12:30:00,77.9,56.6,30.06,WNW,293,2.7,2.7,48,0.00,,,0.00,WUHU216HW,2013-07-01 17:30:00,
2013-07-01 12:35:00,77.9,56.6,30.06,WNW,293,2.7,2.7,48,0.00,,,0.00,WUHU216HW,2013-07-01 17:35:00,
2013-07-01 13:00:00,79.9,54.7,30.06,NNE,23,3.8,3.8,42,0.00,,,0.00,WUHU216HW,2013-07-01 18:00:00,
2013-07-01 13:05:00,79.9,54.7,30.06,NNE,23,3.8,3.8,42,0.00,,,0.00,WUHU216HW,2013-07-01 18:05:00,
2013-07-01 13:30:00,81.0,52.2,30.05,North,0,6.7,6.7,37,0.00,,,0.00,WUHU216HW,2013-07-01 18:30:00,
2013-07-01 13:35:00,81.0,52.2,30.05,North,0,6.7,6.7,37,0.00,,,0.00,WUHU216HW,2013-07-01 18:35:00,
2013-07-01 14:00:00,82.4,53.5,30.05,NE,45,6.0,6.0,37,0.00,,,0.00,WUHU216HW,2013-07-01 19:00:00,
2013-07-01 14:05:00,82.4,53.5,30.05,NE,45,6.0,6.0,37,0.00,,,0.00,WUHU216HW,2013-07-01 19:05:00,
2013-07-01 14:30:00,83.7,53.0,30.04,NNE,23,0.9,0.9,35,0.00,,,0.00,WUHU216HW,2013-07-01 19:30:00,
2013-07-01 14:35:00,83.7,53.0,30.04,NNE,23,0.9,0.9,35,0.00,,,0.00,WUHU216HW,2013-07-01 19:35:00,
2013-07-01 15:00:00,84.2,54.3,30.04,NE,45,1.3,1.3,36,0.00,,,0.00,WUHU216HW,2013-07-01 20:00:00,
2013-07-01 15:05:00,84.2,54.3,30.04,NE,45,1.3,1.3,36,0.00,,,0.00,WUHU216HW,2013-07-01 20:05:00,
2013-07-01 15:30:00,84.2,51.8,30.04,North,0,3.8,3.8,33,0.00,,,0.00,WUHU216HW,2013-07-01 20:30:00,
2013-07-01 15:35:00,84.2,51.8,30.04,North,0,3.8,3.8,33,0.00,,,0.00,WUHU216HW,2013-07-01 20:35:00,
2013-07-01 16:00:00,83.7,53.0,30.03,NE,45,5.6,5.6,35,0.00,,,0.00,WUHU216HW,2013-07-01 21:00:00,
2013-07-01 16:05:00,83.7,53.0,30.03,NE,45,5.6,5.6,35,0.00,,,0.00,WUHU216HW,2013-07-01 21:05:00,
2013-07-01 16:30:00,83.2,51.7,30.02,NE,45,1.1,1.1,34,0.00,,,0.00,WUHU216HW,2013-07-01 21:30:00,
2013-07-01 16:35:00,83.2,51.7,30.02,NE,45,1.1,1.1,34,0.00,,,0.00,WUHU216HW,2013-07-01 21:35:00,
2013-07-01 17:00:00,81.5,52.7,30.02,North,0,5.6,5.6,37,0.00,,,0.00,WUHU216HW,2013-07-01 22:00:00,
2013-07-01 17:05:00,81.5,52.7,30.02,North,0,5.6,5.6,37,0.00,,,0.00,WUHU216HW,2013-07-01 22:05:00,
2013-07-01 17:30:00,80.8,52.8,30.01,ENE,68,1.6,1.6,38,0.00,,,0.00,WUHU216HW,2013-07-01 22:30:00,
2013-07-01 17:35:00,80.8,52.8,30.01,ENE,68,1.6,1.6,38,0.00,,,0.00,WUHU216HW,2013-07-01 22:35:00,
2013-07-01 18:00:00,80.3,51.6,30.01,NNE,23,5.6,5.6,37,0.00,,,0.00,WUHU216HW,2013-07-01 23:00:00,
2013-07-01 18:05:00,80.3,51.6,30.01,NNE,23,5.6,5.6,37,0.00,,,0.00,WUHU216HW,2013-07-01 23:05:00,
2013-07-01 18:30:00,79.2,52.9,30.01,NE,45,3.8,3.8,40,0.00,,,0.00,WUHU216HW,2013-07-01 23:30:00,
2013-07-01 18:35:00,79.2,52.9,30.01,NE,45,3.8,3.8,40,0.00,,,0.00,WUHU216HW,2013-07-01 23:35:00,
2013-07-01 19:00:00,78.8,52.6,30.01,NE,45,2.0,2.0,40,0.00,,,0.00,WUHU216HW,2013-07-02 00:00:00,
2013-07-01 19:05:00,78.8,52.6,30.01,NE,45,2.0,2.0,40,0.00,,,0.00,WUHU216HW,2013-07-02 00:05:00,
2013-07-01 19:30:00,77.8,52.2,30.02,NNE,23,2.0,2.0,41,0.00,,,0.00,WUHU216HW,2013-07-02 00:30:00,
2013-07-01 19:35:00,77.8,52.2,30.02,NNE,23,2.0,2.0,41,0.00,,,0.00,WUHU216HW,2013-07-02 00:35:00,
2013-07-01 20:00:00,76.9,52.7,30.02,NNE,23,1.6,1.6,43,0.00,,,0.00,WUHU216HW,2013-07-02 01:00:00,
2013-07-01 20:05:00,76.9,52.7,30.02,NNE,23,1.6,1.6,43,0.00,,,0.00,WUHU216HW,2013-07-02 01:05:00,
2013-07-01 20:30:00,75.8,52.8,30.02,NNE,23,0.7,0.7,45,0.00,,,0.00,WUHU216HW,2013-07-02 01:30:00,
2013-07-01 20:35:00,75.8,52.8,30.02,NNE,23,0.7,0.7,45,0.00,,,0.00,WUHU216HW,2013-07-02 01:35:00,
2013-07-01 21:00:00,74.5,52.9,30.02,NE,45,0.4,0.4,47,0.00,,,0.00,WUHU216HW,2013-07-02 02:00:00,
2013-07-01 21:05:00,74.5,52.9,30.02,NE,45,0.4,0.4,47,0.00,,,0.00,WUHU216HW,2013-07-02 02:05:00,
2013-07-01 21:30:00,72.9,52.6,30.02,NNE,23,0.4,0.4,49,0.00,,,0.00,WUHU216HW,2013-07-02 02:30:00,
2013-07-01 21:35:00,72.9,52.6,30.02,NNE,23,0.4,0.4,49,0.00,,,0.00,WUHU216HW,2013-07-02 02:35:00,
2013-07-01 22:00:00,71.3,53.2,30.03,NNE,23,0.0,0.0,53,0.00,,,0.00,WUHU216HW,2013-07-02 03:00:00,
2013-07-01 22:05:00,71.3,53.2,30.03,NNE,23,0.0,0.0,53,0.00,,,0.00,WUHU216HW,2013-07-02 03:05:00,
2013-07-01 22:30:00,69.5,52.6,30.03,NNE,23,0.0,0.0,55,0.00,,,0.00,WUHU216HW,2013-07-02 03:30:00,
2013-07-01 22:35:00,69.5,52.6,30.03,NNE,23,0.0,0.0,55,0.00,,,0.00,WUHU216HW,2013-07-02 03:35:00,
2013-07-01 23:00:00,68.2,52.4,30.03,NNE,23,0.0,0.0,57,0.00,,,0.00,WUHU216HW,2013-07-02 04:00:00,
2013-07-01 23:01:00,68.2,52.4,30.03,NNE,23,0.0,0.0,57,0.00,,,0.00,WUHU216HW,2013-07-02 04:01:00,
2013-07-01 23:06:00,68.2,52.4,30.03,NNE,23,0.0,0.0,57,0.00,,,0.00,WUHU216HW,2013-07-02 04:06:00,
2013-07-01 23:30:00,67.1,52.8,30.04,NNE,23,0.0,0.0,60,0.00,,,0.00,WUHU216HW,2013-07-02 04:30:00,
2013-07-01 23:35:00,67.1,52.8,30.04,NNE,23,0.0,0.0,60,0.00,,,0.00,WUHU216HW,2013-07-02 04:35:00,